Aviation Digital Data Service (ADDS)

Output produced by METARs form (1935 UTC 25 March 2017)
found at http://www.aviationweather.gov/adds/metars/
 
EBBE 251925Z AUTO 04009KT 9999 NCD 10/M03 Q1023 BLU
EBBR 251920Z 06008KT CAVOK 09/M02 Q1024 NOSIG
TAF EBBR 251710Z 2518/2624 05009KT CAVOK 
     PROB30 
     TEMPO 2604/2607 BKN006
       
EBCI 251920Z 06016KT CAVOK 10/M02 Q1022 NOSIG
TAF EBCI 251710Z 2518/2624 05009KT CAVOK
       
EBCV 251925Z AUTO 05011KT 9999 NCD 11/M01 Q1023 BLU
TAF EBCV 251714Z 2519/2607 07010G20KT 9999 NSW SCT250 BY EBWM
       
EBAW 251920Z 05009KT CAVOK 11/M03 Q1024 NOSIG
TAF EBAW 251710Z 2518/2603 05009KT CAVOK
       
EBFS 251925Z AUTO 04011KT 9999 BKN220/// 10/M01 Q1022 BLU
EBBL 251925Z 05011KT 9999 SCT250 11/M05 Q1025 BLU
TAF EBBL 251715Z 2519/2607 07010G20KT 9999 NSW SCT230 
     TEMPO 2603/2607 07010KT 5000 BR 
     PROB30 
     TEMPO 2604/2607 3000 BR SCT003 SCT005 BY EBWM
       
EBFN 251925Z 04014KT 9999 FEW250 09/04 Q1024 BLU
TAF EBFN 251711Z 2519/2607 07015G25KT 9999 NSW SCT250 BY EBWM
       
EBLG 251920Z 05017KT CAVOK 10/M03 Q1023 NOSIG
TAF EBLG 251710Z 2518/2624 05009KT CAVOK
       
EBOS 251920Z 04016KT CAVOK 09/04 Q1024 NOSIG
TAF EBOS 251710Z 2518/2624 06012KT CAVOK 
     PROB30 
     TEMPO 2604/2607 BKN006